createdAt,value
2018-05-04T00:01:00.028Z,8.67
2018-05-04T00:02:06.315Z,8.70
2018-05-04T00:03:12.650Z,8.76
2018-05-04T00:04:19.360Z,8.76
2018-05-04T00:05:25.559Z,8.69
2018-05-04T00:06:31.760Z,8.69
2018-05-04T00:07:38.111Z,8.57
2018-05-04T00:08:45.746Z,8.65
2018-05-04T00:09:52.032Z,8.74
2018-05-04T00:10:57.972Z,8.77
2018-05-04T00:12:04.199Z,8.69
2018-05-04T00:13:10.391Z,8.60
2018-05-04T00:14:17.485Z,8.61
2018-05-04T00:15:23.694Z,8.56
2018-05-04T00:16:38.396Z,8.48
2018-05-04T00:17:44.617Z,8.44
2018-05-04T00:18:50.842Z,8.38
2018-05-04T00:19:57.133Z,8.30
2018-05-04T00:21:03.447Z,8.20
2018-05-04T00:22:09.755Z,8.09
2018-05-04T00:23:16.091Z,8.04
2018-05-04T00:24:22.371Z,8.08
2018-05-04T00:25:28.615Z,8.20
2018-05-04T00:26:36.930Z,8.25
2018-05-04T00:27:48.340Z,8.21
2018-05-04T00:28:54.627Z,8.12
2018-05-04T00:30:00.931Z,8.03
2018-05-04T00:31:07.107Z,7.99
2018-05-04T00:32:13.902Z,7.99
2018-05-04T00:33:20.168Z,7.92
2018-05-04T00:34:26.456Z,7.85
2018-05-04T00:35:32.639Z,7.88
2018-05-04T00:36:38.976Z,7.83
2018-05-04T00:37:45.183Z,7.92
2018-05-04T00:38:51.437Z,8.07
2018-05-04T00:39:57.694Z,8.04
2018-05-04T00:41:03.582Z,7.92
2018-05-04T00:42:09.785Z,7.95
2018-05-04T00:43:15.940Z,7.98
2018-05-04T00:44:22.251Z,7.96
2018-05-04T00:45:28.447Z,8.11
2018-05-04T00:46:34.627Z,8.14
2018-05-04T00:47:41.563Z,8.18
2018-05-04T00:48:47.843Z,8.18
2018-05-04T00:49:54.377Z,8.21
2018-05-04T00:51:01.612Z,8.21
2018-05-04T00:52:08.359Z,8.04
2018-05-04T00:53:14.543Z,7.88
2018-05-04T00:54:23.526Z,7.90
2018-05-04T00:55:29.743Z,7.90
2018-05-04T00:56:36.476Z,7.98
2018-05-04T00:57:42.739Z,7.88
2018-05-04T00:58:49.072Z,7.80
2018-05-04T00:59:55.447Z,7.85
2018-05-04T01:01:01.718Z,7.93
2018-05-04T01:02:08.034Z,7.98
2018-05-04T01:03:14.268Z,7.88
2018-05-04T01:04:20.478Z,7.83
2018-05-04T01:05:26.663Z,7.78
2018-05-04T01:06:34.460Z,7.73
2018-05-04T01:07:41.408Z,7.74
2018-05-04T01:08:48.175Z,7.78
2018-05-04T01:09:54.371Z,7.70
2018-05-04T01:11:00.594Z,7.68
2018-05-04T01:12:06.858Z,7.71
2018-05-04T01:13:13.103Z,7.75
2018-05-04T01:14:19.126Z,7.86
2018-05-04T01:15:25.413Z,7.99
2018-05-04T01:16:31.726Z,8.07
2018-05-04T01:17:37.528Z,8.03
2018-05-04T01:18:43.747Z,7.99
2018-05-04T01:19:49.947Z,7.97
2018-05-04T01:20:56.139Z,8.02
2018-05-04T01:22:02.374Z,8.04
2018-05-04T01:23:09.017Z,7.95
2018-05-04T01:24:15.018Z,7.85
2018-05-04T01:25:20.965Z,7.83
2018-05-04T01:26:27.171Z,7.84
2018-05-04T01:27:33.407Z,7.80
2018-05-04T01:28:39.701Z,7.77
2018-05-04T01:29:45.979Z,7.74
2018-05-04T01:30:52.252Z,7.68
2018-05-04T01:31:58.475Z,7.68
2018-05-04T01:33:04.666Z,7.71
2018-05-04T01:34:10.625Z,7.84
2018-05-04T01:35:16.872Z,7.85
2018-05-04T01:36:23.191Z,7.89
2018-05-04T01:37:29.395Z,7.97
2018-05-04T01:38:35.630Z,8.00
2018-05-04T01:39:41.824Z,8.03
2018-05-04T01:40:48.039Z,7.98
2018-05-04T01:41:53.884Z,8.00
2018-05-04T01:43:00.622Z,7.99
2018-05-04T01:44:06.801Z,7.96
2018-05-04T01:45:13.112Z,8.01
2018-05-04T01:46:19.699Z,8.06
2018-05-04T01:47:25.996Z,8.07
2018-05-04T01:48:32.246Z,8.01
2018-05-04T01:49:38.703Z,8.01
2018-05-04T01:50:44.595Z,7.94
2018-05-04T01:51:50.822Z,7.98
2018-05-04T01:52:57.249Z,7.93
2018-05-04T01:54:03.537Z,7.92
2018-05-04T01:55:09.772Z,7.93
2018-05-04T01:56:16.082Z,7.98
2018-05-04T01:57:22.305Z,7.98
2018-05-04T01:58:28.963Z,8.08
2018-05-04T01:59:35.959Z,8.11
2018-05-04T02:00:42.143Z,8.13
2018-05-04T02:01:48.394Z,8.19
2018-05-04T02:02:54.570Z,8.26
2018-05-04T02:04:01.553Z,8.37
2018-05-04T02:05:09.719Z,8.44
2018-05-04T02:06:15.960Z,8.46
2018-05-04T02:07:21.900Z,8.48
2018-05-04T02:08:28.173Z,8.49
2018-05-04T02:09:34.494Z,8.52
2018-05-04T02:10:40.705Z,8.59
2018-05-04T02:11:53.454Z,8.62
2018-05-04T02:12:59.595Z,8.59
2018-05-04T02:14:07.306Z,8.63
2018-05-04T02:15:14.119Z,8.66
2018-05-04T02:16:20.347Z,8.68
2018-05-04T02:17:30.439Z,8.76
2018-05-04T02:18:36.647Z,8.72
2018-05-04T02:19:42.827Z,8.79
2018-05-04T02:20:49.101Z,8.85
2018-05-04T02:21:55.378Z,8.81
2018-05-04T02:23:01.589Z,8.74
2018-05-04T02:24:08.515Z,8.70
2018-05-04T02:25:14.855Z,8.69
2018-05-04T02:26:21.131Z,8.70
2018-05-04T02:27:27.889Z,8.71
2018-05-04T02:28:34.167Z,8.72
2018-05-04T02:29:41.418Z,8.72
2018-05-04T02:30:48.022Z,8.67
2018-05-04T02:31:54.262Z,8.60
2018-05-04T02:33:08.371Z,8.55
2018-05-04T02:34:14.597Z,8.51
2018-05-04T02:35:20.852Z,8.51
2018-05-04T02:36:27.053Z,8.53
2018-05-04T02:37:33.405Z,8.56
2018-05-04T02:38:39.681Z,8.55
2018-05-04T02:39:45.962Z,8.51
2018-05-04T02:40:52.225Z,8.52
2018-05-04T02:41:58.430Z,8.55
2018-05-04T02:43:04.233Z,8.55
2018-05-04T02:44:11.144Z,8.58
2018-05-04T02:45:19.081Z,8.57
2018-05-04T02:46:25.586Z,8.57
2018-05-04T02:47:31.815Z,8.60
2018-05-04T02:48:38.018Z,8.65
2018-05-04T02:49:44.967Z,8.71
2018-05-04T02:50:51.175Z,8.66
2018-05-04T02:51:57.147Z,8.74
2018-05-04T02:53:03.448Z,8.71
2018-05-04T02:54:09.691Z,8.69
2018-05-04T02:55:15.991Z,8.68
2018-05-04T02:56:22.209Z,8.74
2018-05-04T02:57:28.413Z,8.71
2018-05-04T02:58:34.629Z,8.70
2018-05-04T02:59:40.839Z,8.72
2018-05-04T03:00:47.177Z,8.83
2018-05-04T03:01:54.091Z,8.86
2018-05-04T03:03:00.283Z,8.82
2018-05-04T03:04:06.481Z,8.76
2018-05-04T03:05:13.412Z,8.72
2018-05-04T03:06:19.663Z,8.75
2018-05-04T03:07:26.468Z,8.75
2018-05-04T03:08:32.772Z,8.73
2018-05-04T03:09:38.985Z,8.70
2018-05-04T03:10:45.210Z,8.72
2018-05-04T03:11:51.500Z,8.73
2018-05-04T03:12:57.733Z,8.73
2018-05-04T03:14:04.015Z,8.70
2018-05-04T03:15:13.709Z,8.71
2018-05-04T03:16:19.904Z,8.72
2018-05-04T03:17:27.091Z,8.77
2018-05-04T03:18:33.327Z,8.80
2018-05-04T03:19:40.309Z,8.84
2018-05-04T03:20:46.867Z,8.79
2018-05-04T03:21:53.144Z,8.83
2018-05-04T03:22:59.618Z,8.83
2018-05-04T03:24:05.834Z,8.83
2018-05-04T03:25:12.047Z,8.79
2018-05-04T03:26:18.482Z,8.79
2018-05-04T03:27:24.771Z,8.80
2018-05-04T03:28:30.967Z,8.81
2018-05-04T03:29:37.190Z,8.81
2018-05-04T03:30:43.408Z,8.83
2018-05-04T03:31:49.752Z,8.87
2018-05-04T03:32:56.040Z,8.90
2018-05-04T03:34:02.374Z,8.89
2018-05-04T03:35:08.644Z,8.89
2018-05-04T03:36:15.993Z,8.92
2018-05-04T03:37:22.275Z,8.99
2018-05-04T03:38:28.536Z,8.97
2018-05-04T03:39:34.862Z,8.98
2018-05-04T03:40:41.101Z,8.96
2018-05-04T03:41:47.370Z,8.89
2018-05-04T03:42:53.645Z,8.84
2018-05-04T03:44:00.695Z,8.82
2018-05-04T03:45:06.902Z,8.84
2018-05-04T03:46:13.207Z,8.87
2018-05-04T03:47:19.149Z,8.84
2018-05-04T03:48:25.401Z,8.86
2018-05-04T03:49:31.808Z,8.86
2018-05-04T03:50:37.731Z,8.89
2018-05-04T03:51:43.952Z,8.85
2018-05-04T03:52:51.257Z,8.91
2018-05-04T03:53:57.407Z,8.96
2018-05-04T03:55:03.561Z,8.95
2018-05-04T03:56:09.798Z,8.95
2018-05-04T03:57:32.357Z,8.91
2018-05-04T03:58:49.164Z,8.94
2018-05-04T04:00:06.184Z,8.88
2018-05-04T04:01:23.384Z,8.84
2018-05-04T04:02:40.469Z,8.85
2018-05-04T04:03:57.475Z,8.85
2018-05-04T04:05:03.512Z,8.85
2018-05-04T04:06:09.748Z,8.92
2018-05-04T04:07:16.000Z,8.96
2018-05-04T04:08:22.882Z,8.95
2018-05-04T04:09:29.695Z,8.96
2018-05-04T04:10:35.694Z,8.99
2018-05-04T04:11:41.998Z,9.04
2018-05-04T04:12:48.318Z,9.05
2018-05-04T04:13:54.567Z,9.06
2018-05-04T04:15:00.756Z,9.09
2018-05-04T04:16:06.996Z,9.10
2018-05-04T04:17:13.245Z,9.08
2018-05-04T04:18:22.891Z,9.11
2018-05-04T04:19:29.074Z,9.09
2018-05-04T04:20:35.391Z,9.05
2018-05-04T04:21:41.622Z,9.03
2018-05-04T04:22:47.827Z,9.06
2018-05-04T04:23:54.037Z,9.03
2018-05-04T04:25:04.245Z,9.09
2018-05-04T04:26:10.554Z,9.13
2018-05-04T04:27:17.041Z,9.08
2018-05-04T04:28:23.283Z,9.08
2018-05-04T04:29:30.404Z,9.12
2018-05-04T04:30:36.613Z,9.10
2018-05-04T04:31:42.872Z,9.10
2018-05-04T04:32:49.146Z,9.13
2018-05-04T04:33:55.326Z,9.11
2018-05-04T04:35:01.689Z,9.16
2018-05-04T04:36:07.957Z,9.17
2018-05-04T04:37:14.314Z,9.17
2018-05-04T04:38:20.622Z,9.22
2018-05-04T04:39:34.099Z,9.26
2018-05-04T04:40:40.838Z,9.29
2018-05-04T04:41:47.384Z,9.28
2018-05-04T04:42:53.571Z,9.27
2018-05-04T04:43:59.833Z,9.29
2018-05-04T04:45:06.044Z,9.34
2018-05-04T04:46:12.225Z,9.32
2018-05-04T04:47:20.299Z,9.29
2018-05-04T04:48:27.291Z,9.29
2018-05-04T04:49:38.572Z,9.31
2018-05-04T04:50:44.769Z,9.28
2018-05-04T04:51:51.031Z,9.26
2018-05-04T04:52:57.311Z,9.24
2018-05-04T04:54:04.211Z,9.28
2018-05-04T04:55:11.198Z,9.27
2018-05-04T04:56:18.011Z,9.27
2018-05-04T04:57:24.307Z,9.28
2018-05-04T04:58:30.558Z,9.29
2018-05-04T04:59:36.804Z,9.31
2018-05-04T05:00:42.999Z,9.32
2018-05-04T05:01:49.348Z,9.27
2018-05-04T05:02:55.753Z,9.22
2018-05-04T05:04:02.017Z,9.19
2018-05-04T05:05:07.511Z,9.20
2018-05-04T05:06:14.676Z,9.18
2018-05-04T05:07:20.902Z,9.13
2018-05-04T05:08:27.193Z,9.12
2018-05-04T05:09:33.371Z,9.11
2018-05-04T05:10:39.633Z,9.13
2018-05-04T05:11:46.750Z,9.11
2018-05-04T05:12:53.055Z,9.08
2018-05-04T05:13:59.254Z,9.08
2018-05-04T05:15:04.994Z,9.08
2018-05-04T05:16:11.805Z,9.09
2018-05-04T05:17:18.112Z,9.18
2018-05-04T05:18:24.511Z,9.12
2018-05-04T05:19:33.816Z,9.08
2018-05-04T05:20:40.083Z,9.10
2018-05-04T05:21:46.387Z,9.07
2018-05-04T05:22:53.563Z,9.08
2018-05-04T05:23:59.490Z,9.18
2018-05-04T05:25:06.502Z,9.27
2018-05-04T05:26:12.659Z,9.32
2018-05-04T05:27:18.893Z,9.39
2018-05-04T05:28:25.098Z,9.46
2018-05-04T05:29:31.318Z,9.52
2018-05-04T05:30:37.807Z,9.50
2018-05-04T05:31:44.032Z,9.51
2018-05-04T05:32:50.533Z,9.64
2018-05-04T05:33:58.510Z,9.84
2018-05-04T05:35:04.427Z,10.02
2018-05-04T05:36:10.750Z,10.09
2018-05-04T05:37:17.027Z,10.14
2018-05-04T05:38:23.274Z,10.11
2018-05-04T05:39:29.534Z,10.07
2018-05-04T05:40:35.756Z,10.13
2018-05-04T05:41:41.979Z,10.17
2018-05-04T05:42:55.639Z,10.21
2018-05-04T05:44:02.057Z,10.12
2018-05-04T05:45:08.269Z,9.96
2018-05-04T05:46:14.455Z,9.92
2018-05-04T05:47:20.679Z,10.14
2018-05-04T05:48:26.752Z,10.09
2018-05-04T05:49:32.988Z,10.18
2018-05-04T05:50:39.229Z,10.34
2018-05-04T05:51:45.189Z,10.46
2018-05-04T05:52:51.969Z,10.18
2018-05-04T05:53:58.246Z,10.20
2018-05-04T05:55:04.084Z,10.35
2018-05-04T05:56:10.334Z,10.41
2018-05-04T05:57:16.718Z,10.35
2018-05-04T05:58:23.023Z,10.28
2018-05-04T05:59:29.303Z,10.36
2018-05-04T06:00:35.631Z,10.35
2018-05-04T06:01:41.951Z,10.32
2018-05-04T06:02:48.360Z,10.25
2018-05-04T06:03:54.531Z,10.29
2018-05-04T06:05:01.371Z,10.40
2018-05-04T06:06:07.718Z,10.63
2018-05-04T06:07:14.012Z,10.73
2018-05-04T06:08:20.220Z,10.69
2018-05-04T06:09:30.055Z,10.72
2018-05-04T06:10:36.246Z,10.76
2018-05-04T06:11:43.027Z,10.82
2018-05-04T06:12:49.026Z,11.06
2018-05-04T06:13:55.287Z,11.26
2018-05-04T06:15:02.051Z,11.16
2018-05-04T06:16:08.289Z,11.24
2018-05-04T06:17:15.264Z,11.36
2018-05-04T06:18:22.055Z,10.96
2018-05-04T06:19:28.446Z,11.07
2018-05-04T06:21:39.493Z,11.42
2018-05-04T06:22:45.742Z,11.67
2018-05-04T06:23:52.967Z,11.23
2018-05-04T06:24:59.203Z,11.32
2018-05-04T06:26:06.235Z,11.59
2018-05-04T06:27:12.518Z,11.43
2018-05-04T06:28:18.762Z,11.47
2018-05-04T06:29:25.042Z,11.76
2018-05-04T06:30:31.240Z,11.43
2018-05-04T06:31:37.476Z,11.68
2018-05-04T06:32:43.890Z,11.59
2018-05-04T06:33:51.462Z,11.58
2018-05-04T06:34:58.673Z,11.69
2018-05-04T06:36:04.726Z,11.74
2018-05-04T06:37:11.000Z,11.84
2018-05-04T06:38:17.303Z,11.69
2018-05-04T06:39:23.587Z,11.75
2018-05-04T06:40:29.799Z,11.78
2018-05-04T06:41:36.139Z,11.94
2018-05-04T06:42:42.461Z,12.01
2018-05-04T06:43:50.226Z,12.14
2018-05-04T06:44:57.927Z,12.36
2018-05-04T06:46:05.613Z,12.11
2018-05-04T06:47:14.186Z,11.99
2018-05-04T06:48:21.376Z,12.07
2018-05-04T06:49:28.427Z,12.13
2018-05-04T06:50:35.436Z,12.40
2018-05-04T06:51:41.736Z,12.41
2018-05-04T06:52:48.031Z,12.49
2018-05-04T06:53:54.247Z,12.39
2018-05-04T06:55:00.543Z,12.55
2018-05-04T06:56:06.752Z,12.67
2018-05-04T06:57:12.974Z,12.71
2018-05-04T06:58:19.299Z,12.55
2018-05-04T06:59:25.700Z,12.69
2018-05-04T07:00:34.000Z,12.60
2018-05-04T07:01:40.263Z,12.78
2018-05-04T07:02:46.679Z,12.56
2018-05-04T07:03:53.018Z,12.54
2018-05-04T07:04:59.608Z,12.19
2018-05-04T07:06:06.507Z,12.46
2018-05-04T07:07:16.043Z,12.57
2018-05-04T07:08:22.352Z,12.48
2018-05-04T07:09:28.781Z,12.45
2018-05-04T07:10:35.651Z,12.36
2018-05-04T07:11:41.880Z,12.34
2018-05-04T07:12:48.107Z,12.26
2018-05-04T07:13:54.343Z,12.70
2018-05-04T07:15:00.702Z,12.87
2018-05-04T07:16:07.102Z,12.45
2018-05-04T07:17:13.328Z,12.77
2018-05-04T07:18:19.542Z,12.86
2018-05-04T07:19:25.775Z,13.04
2018-05-04T07:20:32.075Z,13.13
2018-05-04T07:21:39.189Z,13.15
2018-05-04T07:22:45.312Z,13.03
2018-05-04T07:23:51.543Z,13.16
2018-05-04T07:24:57.519Z,12.63
2018-05-04T07:26:03.739Z,12.91
2018-05-04T07:27:15.835Z,13.20
2018-05-04T07:28:22.047Z,13.13
2018-05-04T07:29:28.299Z,13.06
2018-05-04T07:30:34.525Z,13.08
2018-05-04T07:31:40.796Z,13.17
2018-05-04T07:32:47.024Z,12.95
2018-05-04T07:33:53.266Z,12.91
2018-05-04T07:34:59.760Z,13.12
2018-05-04T07:36:06.137Z,13.32
2018-05-04T07:37:12.983Z,13.30
2018-05-04T07:38:19.234Z,13.30
2018-05-04T07:39:25.611Z,13.04
2018-05-04T07:40:33.156Z,13.36
2018-05-04T07:41:39.464Z,13.40
2018-05-04T07:42:45.672Z,13.41
2018-05-04T07:43:51.897Z,13.71
2018-05-04T07:44:58.209Z,13.76
2018-05-04T07:46:04.019Z,13.96
2018-05-04T07:47:10.282Z,13.88
2018-05-04T07:48:16.515Z,13.75
2018-05-04T07:49:22.510Z,13.45
2018-05-04T07:50:28.846Z,13.72
2018-05-04T07:51:34.822Z,13.82
2018-05-04T07:52:41.244Z,14.01
2018-05-04T07:53:47.527Z,13.82
2018-05-04T07:54:53.464Z,13.95
2018-05-04T07:55:59.645Z,14.06
2018-05-04T07:57:06.099Z,13.89
2018-05-04T07:58:12.303Z,13.98
2018-05-04T07:59:19.169Z,14.11
2018-05-04T08:00:25.430Z,14.13
2018-05-04T08:01:30.957Z,14.16
2018-05-04T08:02:37.220Z,14.27
2018-05-04T08:03:43.452Z,14.40
2018-05-04T08:04:49.668Z,14.37
2018-05-04T08:05:55.866Z,14.64
2018-05-04T08:07:02.023Z,14.70
2018-05-04T08:08:08.280Z,14.65
2018-05-04T08:09:14.523Z,14.68
2018-05-04T08:10:20.800Z,14.52
2018-05-04T08:11:27.299Z,14.55
2018-05-04T08:12:34.141Z,14.49
2018-05-04T08:13:42.480Z,14.61
2018-05-04T08:14:48.502Z,14.70
2018-05-04T08:15:54.486Z,14.67
2018-05-04T08:17:01.083Z,14.82
2018-05-04T08:18:07.252Z,15.03
2018-05-04T08:19:13.482Z,15.11
2018-05-04T08:20:20.271Z,14.77
2018-05-04T08:21:26.520Z,14.28
2018-05-04T08:22:32.787Z,14.28
2018-05-04T08:23:39.611Z,14.61
2018-05-04T08:24:45.860Z,14.94
2018-05-04T08:25:51.928Z,15.21
2018-05-04T08:26:58.157Z,15.15
2018-05-04T08:28:04.463Z,14.88
2018-05-04T08:29:10.713Z,15.16
2018-05-04T08:30:17.007Z,15.34
2018-05-04T08:31:23.312Z,15.04
2018-05-04T08:32:29.494Z,15.14
2018-05-04T08:33:35.766Z,15.11
2018-05-04T08:34:42.167Z,15.14
2018-05-04T08:35:48.470Z,15.08
2018-05-04T08:36:54.442Z,15.16
2018-05-04T08:38:01.608Z,15.12
2018-05-04T08:39:07.910Z,15.29
2018-05-04T08:40:14.002Z,15.58
2018-05-04T08:41:20.812Z,15.47
2018-05-04T08:42:27.031Z,15.44
2018-05-04T08:43:33.732Z,15.41
2018-05-04T08:44:39.781Z,15.38
2018-05-04T08:45:46.107Z,15.49
2018-05-04T08:46:52.393Z,15.56
2018-05-04T08:47:58.884Z,15.53
2018-05-04T08:49:05.292Z,15.80
2018-05-04T08:50:13.637Z,15.79
2018-05-04T08:51:22.191Z,15.65
2018-05-04T08:52:28.200Z,15.72
2018-05-04T08:53:34.442Z,15.85
2018-05-04T08:54:40.679Z,15.85
2018-05-04T08:55:47.030Z,15.59
2018-05-04T08:56:53.242Z,15.51
2018-05-04T08:58:00.087Z,15.37
2018-05-04T08:59:07.199Z,15.54
2018-05-04T09:00:13.479Z,15.89
2018-05-04T09:01:20.093Z,16.31
2018-05-04T09:02:26.495Z,16.18
2018-05-04T09:03:32.789Z,15.91
2018-05-04T09:04:39.606Z,15.84
2018-05-04T09:05:45.828Z,16.07
2018-05-04T09:06:52.339Z,15.94
2018-05-04T09:07:58.543Z,15.88
2018-05-04T09:09:03.864Z,15.17
2018-05-04T09:10:10.176Z,15.37
2018-05-04T09:11:19.833Z,15.72
2018-05-04T09:12:30.816Z,16.24
2018-05-04T09:13:38.092Z,15.91
2018-05-04T09:14:44.394Z,15.91
2018-05-04T09:15:50.626Z,15.74
2018-05-04T09:16:56.959Z,15.89
2018-05-04T09:18:02.908Z,16.08
2018-05-04T09:19:08.928Z,16.30
2018-05-04T09:20:15.151Z,16.38
2018-05-04T09:21:21.386Z,16.30
2018-05-04T09:22:28.403Z,15.74
2018-05-04T09:23:34.784Z,15.65
2018-05-04T09:24:41.013Z,15.40
2018-05-04T09:25:47.383Z,15.96
2018-05-04T09:26:53.628Z,16.02
2018-05-04T09:28:03.684Z,15.99
2018-05-04T09:29:09.931Z,16.32
2018-05-04T09:30:16.176Z,16.55
2018-05-04T09:31:22.495Z,16.53
2018-05-04T09:32:29.513Z,16.54
2018-05-04T09:33:42.143Z,16.37
2018-05-04T09:34:48.322Z,16.39
2018-05-04T09:35:56.617Z,16.59
2018-05-04T09:37:02.825Z,16.53
2018-05-04T09:38:09.119Z,16.19
2018-05-04T09:39:15.366Z,16.14
2018-05-04T09:40:21.662Z,16.41
2018-05-04T09:41:27.849Z,16.51
2018-05-04T09:42:34.082Z,16.28
2018-05-04T09:43:40.496Z,16.29
2018-05-04T09:44:46.973Z,16.05
2018-05-04T09:45:53.238Z,16.19
2018-05-04T09:47:00.375Z,16.43
2018-05-04T09:48:07.174Z,16.24
2018-05-04T09:49:13.463Z,16.21
2018-05-04T09:50:19.686Z,16.27
2018-05-04T09:51:25.906Z,16.45
2018-05-04T09:52:32.196Z,16.61
2018-05-04T09:53:38.515Z,16.73
2018-05-04T09:54:47.632Z,16.73
2018-05-04T09:55:53.889Z,16.88
2018-05-04T09:57:00.601Z,16.74
2018-05-04T09:58:06.803Z,16.84
2018-05-04T09:59:13.059Z,16.76
2018-05-04T10:00:19.330Z,16.73
2018-05-04T10:01:25.691Z,16.62
2018-05-04T10:02:31.657Z,16.82
2018-05-04T10:03:37.881Z,16.23
2018-05-04T10:04:44.296Z,16.56
2018-05-04T10:05:50.459Z,16.96
2018-05-04T10:06:58.333Z,17.18
2018-05-04T10:08:04.503Z,16.99
2018-05-04T10:09:10.829Z,16.85
2018-05-04T10:10:17.898Z,16.80
2018-05-04T10:11:24.102Z,16.67
2018-05-04T10:12:30.086Z,17.02
2018-05-04T10:13:37.123Z,17.08
2018-05-04T10:14:43.349Z,16.82
2018-05-04T10:15:53.484Z,16.93
2018-05-04T10:16:59.784Z,16.47
2018-05-04T10:18:05.824Z,16.77
2018-05-04T10:19:12.083Z,17.04
2018-05-04T10:20:18.293Z,16.60
2018-05-04T10:21:24.516Z,16.82
2018-05-04T10:22:31.627Z,16.77
2018-05-04T10:23:38.445Z,16.71
2018-05-04T10:24:44.668Z,16.98
2018-05-04T10:25:50.865Z,16.88
2018-05-04T10:26:57.100Z,16.92
2018-05-04T10:28:03.287Z,16.60
2018-05-04T10:29:09.554Z,16.93
2018-05-04T10:30:15.786Z,16.86
2018-05-04T10:31:22.047Z,17.10
2018-05-04T10:32:28.312Z,17.36
2018-05-04T10:33:34.584Z,17.41
2018-05-04T10:34:40.873Z,17.20
2018-05-04T10:35:47.695Z,17.02
2018-05-04T10:36:54.007Z,17.06
2018-05-04T10:38:00.511Z,16.90
2018-05-04T10:39:06.339Z,17.22
2018-05-04T10:40:12.866Z,17.07
2018-05-04T10:41:19.133Z,16.50
2018-05-04T10:42:25.474Z,16.44
2018-05-04T10:43:31.774Z,16.50
2018-05-04T10:44:37.945Z,16.85
2018-05-04T10:45:44.223Z,16.57
2018-05-04T10:46:50.505Z,16.75
2018-05-04T10:47:56.805Z,16.47
2018-05-04T10:49:03.110Z,16.38
2018-05-04T10:50:09.333Z,16.87
2018-05-04T10:51:15.525Z,16.94
2018-05-04T10:52:21.547Z,17.13
2018-05-04T10:53:27.830Z,17.05
2018-05-04T10:54:34.164Z,16.61
2018-05-04T10:55:40.139Z,16.94
2018-05-04T10:56:54.378Z,17.39
2018-05-04T10:58:00.555Z,17.00
2018-05-04T10:59:06.565Z,16.96
2018-05-04T11:00:12.872Z,16.88
2018-05-04T11:01:19.836Z,17.30
2018-05-04T11:02:26.037Z,17.58
2018-05-04T11:03:32.271Z,17.36
2018-05-04T11:04:38.567Z,17.55
2018-05-04T11:05:44.774Z,17.28
2018-05-04T11:06:51.130Z,17.43
2018-05-04T11:07:57.379Z,17.45
2018-05-04T11:09:03.016Z,16.93
2018-05-04T11:10:08.988Z,17.03
2018-05-04T11:11:15.209Z,17.17
2018-05-04T11:12:21.266Z,16.98
2018-05-04T11:13:27.454Z,16.96
2018-05-04T11:14:33.881Z,17.41
2018-05-04T11:15:40.143Z,17.23
2018-05-04T11:16:46.436Z,17.01
2018-05-04T11:17:52.741Z,16.91
2018-05-04T11:18:58.952Z,16.86
2018-05-04T11:20:05.686Z,17.00
2018-05-04T11:21:11.884Z,17.31
2018-05-04T11:22:18.143Z,17.40
2018-05-04T11:23:24.409Z,17.53
2018-05-04T11:24:30.603Z,17.55
2018-05-04T11:25:36.840Z,17.63
2018-05-04T11:26:43.040Z,17.56
2018-05-04T11:27:49.274Z,17.78
2018-05-04T11:28:55.565Z,18.14
2018-05-04T11:30:02.434Z,17.76
2018-05-04T11:31:09.194Z,17.74
2018-05-04T11:32:15.460Z,17.77
2018-05-04T11:33:21.748Z,17.70
2018-05-04T11:34:28.081Z,17.48
2018-05-04T11:35:34.372Z,17.76
2018-05-04T11:36:40.688Z,17.65
2018-05-04T11:37:47.011Z,17.64
2018-05-04T11:38:53.344Z,17.62
2018-05-04T11:39:59.749Z,18.02
2018-05-04T11:41:05.669Z,17.25
2018-05-04T11:42:11.716Z,17.35
2018-05-04T11:43:17.893Z,17.60
2018-05-04T11:44:24.137Z,17.65
2018-05-04T11:45:30.348Z,18.10
2018-05-04T11:46:36.991Z,17.72
2018-05-04T11:47:43.316Z,17.69
2018-05-04T11:48:49.846Z,17.49
2018-05-04T11:49:56.101Z,17.42
2018-05-04T11:51:02.322Z,17.61
2018-05-04T11:52:08.655Z,17.77
2018-05-04T11:53:14.988Z,17.76
2018-05-04T11:54:21.827Z,18.03
2018-05-04T11:55:34.364Z,18.22
2018-05-04T11:56:43.192Z,17.96
2018-05-04T11:57:52.360Z,17.96
2018-05-04T11:59:01.069Z,17.44
2018-05-04T12:00:09.120Z,17.77
2018-05-04T12:01:18.928Z,17.95
2018-05-04T12:02:25.950Z,18.00
2018-05-04T12:03:32.108Z,17.73
2018-05-04T12:04:38.346Z,17.90
2018-05-04T12:05:44.633Z,17.92
2018-05-04T12:06:50.871Z,17.58
2018-05-04T12:07:57.204Z,17.46
2018-05-04T12:09:03.524Z,17.58
2018-05-04T12:10:09.819Z,17.83
2018-05-04T12:11:16.610Z,18.13
2018-05-04T12:12:22.602Z,18.18
2018-05-04T12:13:29.343Z,18.59
2018-05-04T12:14:36.698Z,18.52
2018-05-04T12:15:45.702Z,18.27
2018-05-04T12:16:53.460Z,18.25
2018-05-04T12:17:59.759Z,17.88
2018-05-04T12:19:06.048Z,17.78
2018-05-04T12:20:12.316Z,17.46
2018-05-04T12:21:18.527Z,17.46
2018-05-04T12:22:24.778Z,17.14
2018-05-04T12:23:31.088Z,17.46
2018-05-04T12:24:37.370Z,17.35
2018-05-04T12:25:43.572Z,17.32
2018-05-04T12:26:49.779Z,17.02
2018-05-04T12:27:56.016Z,17.23
2018-05-04T12:29:02.843Z,17.65
2018-05-04T12:30:09.121Z,17.62
2018-05-04T12:31:15.387Z,17.76
2018-05-04T12:32:22.063Z,17.48
2018-05-04T12:33:29.111Z,17.52
2018-05-04T12:34:35.383Z,17.53
2018-05-04T12:35:41.595Z,17.66
2018-05-04T12:36:48.014Z,17.76
2018-05-04T12:37:54.236Z,17.37
2018-05-04T12:39:00.735Z,17.60
2018-05-04T12:40:06.980Z,17.33
2018-05-04T12:41:13.261Z,17.61
2018-05-04T12:42:20.655Z,17.72
2018-05-04T12:43:27.751Z,17.65
2018-05-04T12:44:34.044Z,17.47
2018-05-04T12:45:41.139Z,17.78
2018-05-04T12:46:48.787Z,17.80
2018-05-04T12:47:55.705Z,17.90
2018-05-04T12:49:01.715Z,17.90
2018-05-04T12:50:07.947Z,17.57
2018-05-04T12:51:14.159Z,17.84
2018-05-04T12:52:20.478Z,17.60
2018-05-04T12:53:26.738Z,17.48
2018-05-04T12:54:33.022Z,17.37
2018-05-04T12:55:39.316Z,17.35
2018-05-04T12:56:45.518Z,17.79
2018-05-04T12:57:51.831Z,17.88
2018-05-04T12:58:58.082Z,18.06
2018-05-04T13:00:03.660Z,18.03
2018-05-04T13:01:09.955Z,17.94
2018-05-04T13:02:24.633Z,17.87
2018-05-04T13:03:32.662Z,18.37
2018-05-04T13:04:39.478Z,18.13
2018-05-04T13:05:45.740Z,18.12
2018-05-04T13:06:52.047Z,18.22
2018-05-04T13:07:58.288Z,17.88
2018-05-04T13:09:05.107Z,17.72
2018-05-04T13:10:11.790Z,17.63
2018-05-04T13:11:18.021Z,17.88
2018-05-04T13:12:24.776Z,17.98
2018-05-04T13:13:31.476Z,18.00
2018-05-04T13:14:37.662Z,17.88
2018-05-04T13:15:44.004Z,18.02
2018-05-04T13:16:50.295Z,17.97
2018-05-04T13:17:56.508Z,18.16
2018-05-04T13:19:02.827Z,17.92
2018-05-04T13:20:10.402Z,17.81
2018-05-04T13:21:17.271Z,17.41
2018-05-04T13:22:24.183Z,17.60
2018-05-04T13:23:30.436Z,17.51
2018-05-04T13:24:36.731Z,17.74
2018-05-04T13:25:42.952Z,17.88
2018-05-04T13:26:49.528Z,17.85
2018-05-04T13:27:56.054Z,17.62
2018-05-04T13:29:02.321Z,17.76
2018-05-04T13:30:08.626Z,18.00
2018-05-04T13:31:14.950Z,17.94
2018-05-04T13:32:21.958Z,17.96
2018-05-04T13:33:28.303Z,17.88
2018-05-04T13:34:34.560Z,17.97
2018-05-04T13:35:40.759Z,17.92
2018-05-04T13:36:47.092Z,17.80
2018-05-04T13:37:53.399Z,17.85
2018-05-04T13:38:59.599Z,17.96
2018-05-04T13:40:06.702Z,17.87
2018-05-04T13:41:12.943Z,17.86
2018-05-04T13:42:19.151Z,18.10
2018-05-04T13:43:25.127Z,18.10
2018-05-04T13:44:32.077Z,18.12
2018-05-04T13:45:38.491Z,18.14
2018-05-04T13:46:44.703Z,18.06
2018-05-04T13:47:51.675Z,17.80
2018-05-04T13:48:57.988Z,17.98
2018-05-04T13:50:03.897Z,18.14
2018-05-04T13:51:10.401Z,18.35
2018-05-04T13:52:16.698Z,18.00
2018-05-04T13:53:22.989Z,18.06
2018-05-04T13:54:29.229Z,17.51
2018-05-04T13:55:35.790Z,17.60
2018-05-04T13:56:42.174Z,17.68
2018-05-04T13:57:49.300Z,17.75
2018-05-04T13:58:56.391Z,17.88
2018-05-04T14:00:02.607Z,18.06
2018-05-04T14:01:08.888Z,17.98
2018-05-04T14:02:15.702Z,17.93
2018-05-04T14:03:22.462Z,18.00
2018-05-04T14:04:28.676Z,17.92
2018-05-04T14:05:37.987Z,17.93
2018-05-04T14:06:44.152Z,18.04
2018-05-04T14:07:50.351Z,17.93
2018-05-04T14:08:56.607Z,17.73
2018-05-04T14:10:02.927Z,17.68
2018-05-04T14:11:10.243Z,17.60
2018-05-04T14:12:17.011Z,17.81
2018-05-04T14:13:23.250Z,17.69
2018-05-04T14:14:29.555Z,17.80
2018-05-04T14:15:35.993Z,17.77
2018-05-04T14:16:42.293Z,17.48
2018-05-04T14:17:48.518Z,17.66
2018-05-04T14:18:54.815Z,17.85
2018-05-04T14:20:01.048Z,17.83
2018-05-04T14:21:07.330Z,17.95
2018-05-04T14:22:13.536Z,17.82
2018-05-04T14:23:19.777Z,17.94
2018-05-04T14:24:26.077Z,17.97
2018-05-04T14:25:32.381Z,17.72
2018-05-04T14:26:42.005Z,17.87
2018-05-04T14:27:48.555Z,17.80
2018-05-04T14:28:54.890Z,17.85
2018-05-04T14:30:01.118Z,18.07
2018-05-04T14:31:08.972Z,18.12